Time;durP1;ratioP1;P1;durP2;ratioP2;P2;SDS_P1;SDS_P2;PMS_P1;PMS_P2;Temp;Humidity;BMP_temperature;BMP_pressure;BME280_temperature;BME280_humidity;BME280_pressure;Samples;Min_cycle;Max_cycle;Signal;HPM_P1;HPM_P2
2023/10/10 00:02:20;;;;;;;16.40;5.05;;;;;;;;;;5073967;28;20093;-70
2023/10/10 00:04:54;;;;;;;12.95;5.20;;;;;;;;;;5073180;28;20045;-71
2023/10/10 00:07:24;;;;;;;22.98;5.90;;;;;;;;;;5054010;28;20053;-70
2023/10/10 00:09:50;;;;;;;11.82;5.32;;;;;;;;;;5053660;28;20052;-71
2023/10/10 00:12:28;;;;;;;20.53;5.37;;;;;;;;;;5086741;28;20550;-70
2023/10/10 00:14:58;;;;;;;12.20;5.25;;;;;;;;;;5053442;28;20124;-70
2023/10/10 00:17:46;;;;;;;13.07;4.93;;;;;;;;;;5053367;28;20056;-70
2023/10/10 00:20:21;;;;;;;19.13;5.20;;;;;;;;;;5053714;28;20098;-70
2023/10/10 00:22:48;;;;;;;19.73;5.38;;;;;;;;;;5053308;28;20463;-70
2023/10/10 00:25:23;;;;;;;;;;;;;;;;;;5052776;28;20125;-70
2023/10/10 00:27:57;;;;;;;13.47;4.80;;;;;;;;;;5052872;28;20176;-71
2023/10/10 00:30:27;;;;;;;15.45;5.28;;;;;;;;;;5053014;28;20276;-71
2023/10/10 00:32:53;;;;;;;16.13;4.55;;;;;;;;;;5052040;28;20052;-72
2023/10/10 00:35:19;;;;;;;20.60;6.10;;;;;;;;;;5052189;28;20067;-70
2023/10/10 00:37:46;;;;;;;16.43;5.50;;;;;;;;;;5052451;28;20564;-70
2023/10/10 00:40:25;;;;;;;15.38;5.05;;;;;;;;;;5053168;28;20284;-70
2023/10/10 00:42:51;;;;;;;20.45;6.13;;;;;;;;;;5052063;28;20531;-70
2023/10/10 00:45:17;;;;;;;21.20;6.43;;;;;;;;;;5035612;28;20168;-70
2023/10/10 00:47:45;;;;;;;22.85;6.95;;;;;;;;;;5053142;28;20049;-71
2023/10/10 00:50:18;;;;;;;16.88;6.68;;;;;;;;;;5052998;28;20047;-70
2023/10/10 00:52:49;;;;;;;21.98;6.78;;;;;;;;;;5052823;28;20574;-71
2023/10/10 00:55:26;;;;;;;18.40;6.18;;;;;;;;;;5062550;28;20057;-71
2023/10/10 00:57:58;;;;;;;21.93;6.73;;;;;;;;;;5072754;28;20088;-71
2023/10/10 01:00:25;;;;;;;15.48;6.15;;;;;;;;;;5071824;28;20283;-71
2023/10/10 01:03:01;;;;;;;17.48;6.22;;;;;;;;;;5071557;28;20123;-71
2023/10/10 01:05:39;;;;;;;13.60;5.50;;;;;;;;;;5072578;28;20044;-71
2023/10/10 01:08:09;;;;;;;17.67;6.32;;;;;;;;;;5071328;28;20420;-71
2023/10/10 01:10:57;;;;;;;18.75;6.55;;;;;;;;;;5072770;28;20084;-71
2023/10/10 01:13:23;;;;;;;19.13;6.45;;;;;;;;;;5072770;28;20052;-71
2023/10/10 01:15:49;;;;;;;19.20;6.20;;;;;;;;;;5072057;28;20052;-74
2023/10/10 01:18:15;;;;;;;16.80;6.55;;;;;;;;;;5071401;28;20044;-71
2023/10/10 01:20:45;;;;;;;19.08;7.43;;;;;;;;;;5071671;28;20083;-70
2023/10/10 01:23:12;;;;;;;23.15;6.80;;;;;;;;;;5070958;28;20408;-70
2023/10/10 01:28:13;;;;;;;18.60;6.87;;;;;;;;;;5070780;28;20058;-71
2023/10/10 01:33:42;;;;;;;17.92;7.32;;;;;;;;;;5072268;28;20058;-69
2023/10/10 01:36:11;;;;;;;18.30;6.70;;;;;;;;;;5070622;28;20048;-71
2023/10/10 01:38:56;;;;;;;17.23;6.78;;;;;;;;;;5105234;28;20063;-70
2023/10/10 01:41:23;;;;;;;23.95;7.45;;;;;;;;;;5072723;28;20040;-70
2023/10/10 01:43:53;;;;;;;17.27;6.80;;;;;;;;;;5072579;28;20088;-70
2023/10/10 01:46:29;;;;;;;20.48;7.30;;;;;;;;;;5054689;28;20527;-71
2023/10/10 01:48:55;;;;;;;20.25;8.00;;;;;;;;;;5071343;28;20056;-70
2023/10/10 01:51:25;;;;;;;19.95;8.20;;;;;;;;;;5072044;28;20571;-71
2023/10/10 01:53:55;;;;;;;22.75;8.27;;;;;;;;;;5066947;28;20041;-71
2023/10/10 01:56:22;;;;;;;21.02;7.28;;;;;;;;;;5051468;28;20127;-70
2023/10/10 01:58:53;;;;;;;;;;;;;;;;;;5052791;28;20100;-70
2023/10/10 02:01:19;;;;;;;22.20;7.53;;;;;;;;;;5051239;28;19967;-70
2023/10/10 02:03:46;;;;;;;22.45;7.47;;;;;;;;;;5053398;28;20049;-72
2023/10/10 02:06:27;;;;;;;20.20;7.72;;;;;;;;;;5052279;28;20045;-71
2023/10/10 02:08:54;;;;;;;20.98;7.53;;;;;;;;;;5053138;28;20052;-71
2023/10/10 02:11:20;;;;;;;17.38;6.95;;;;;;;;;;5052011;28;20052;-69
2023/10/10 02:13:47;;;;;;;17.77;7.23;;;;;;;;;;5051510;28;20041;-70
2023/10/10 02:16:17;;;;;;;19.80;6.95;;;;;;;;;;5051762;28;20045;-72
2023/10/10 02:18:50;;;;;;;16.60;6.78;;;;;;;;;;5051145;28;20041;-70
2023/10/10 02:21:17;;;;;;;18.67;6.90;;;;;;;;;;5051339;28;20552;-70
2023/10/10 02:23:46;;;;;;;14.43;6.32;;;;;;;;;;5051889;28;20056;-70
2023/10/10 02:26:23;;;;;;;13.50;5.95;;;;;;;;;;5051596;28;20053;-71
2023/10/10 02:29:05;;;;;;;14.48;6.45;;;;;;;;;;5046327;28;20055;-70
2023/10/10 02:31:32;;;;;;;15.52;6.35;;;;;;;;;;5050805;28;20044;-70
2023/10/10 02:34:02;;;;;;;18.75;6.53;;;;;;;;;;5051582;28;20053;-71
2023/10/10 02:36:32;;;;;;;23.63;7.15;;;;;;;;;;5051673;28;20053;-70
2023/10/10 02:39:18;;;;;;;16.42;7.05;;;;;;;;;;5051738;28;20049;-70
2023/10/10 02:41:49;;;;;;;17.55;6.57;;;;;;;;;;5051007;28;20131;-70
2023/10/10 02:47:00;;;;;;;21.23;7.38;;;;;;;;;;5052054;28;20053;-70
2023/10/10 02:51:55;;;;;;;18.27;7.35;;;;;;;;;;5051535;28;20308;-71
2023/10/10 02:56:58;;;;;;;21.95;7.53;;;;;;;;;;5075779;28;20053;-71
2023/10/10 02:59:31;;;;;;;24.50;8.10;;;;;;;;;;5075276;28;20048;-70
2023/10/10 03:01:57;;;;;;;19.40;7.70;;;;;;;;;;5073659;28;20051;-70
2023/10/10 03:07:29;;;;;;;21.77;8.20;;;;;;;;;;5034548;28;20061;-70
2023/10/10 03:10:23;;;;;;;20.42;7.85;;;;;;;;;;5050193;28;20072;-71
2023/10/10 03:12:51;;;;;;;22.13;9.20;;;;;;;;;;5053760;28;20094;-70
2023/10/10 03:31:05;;;;;;;24.35;9.95;;;;;;;;;;5054854;28;20053;-70
2023/10/10 05:25:51;;;;;;;43.70;18.23;;;;;;;;;;5052908;28;20079;-71
2023/10/10 05:28:22;;;;;;;52.78;19.65;;;;;;;;;;5052461;28;20053;-71
2023/10/10 05:30:48;;;;;;;53.15;18.98;;;;;;;;;;5055565;28;20068;-71
2023/10/10 05:33:19;;;;;;;53.27;19.17;;;;;;;;;;5042979;28;20049;-69
2023/10/10 05:35:48;;;;;;;55.80;20.45;;;;;;;;;;5064593;28;20051;-71
2023/10/10 05:38:15;;;;;;;57.15;20.40;;;;;;;;;;5071350;28;20123;-71
2023/10/10 05:40:43;;;;;;;53.33;19.13;;;;;;;;;;5072344;28;20055;-71
2023/10/10 05:43:09;;;;;;;59.30;19.92;;;;;;;;;;5072516;28;20141;-71
2023/10/10 05:45:36;;;;;;;57.25;19.80;;;;;;;;;;5054225;28;20131;-71
2023/10/10 05:48:03;;;;;;;56.70;20.35;;;;;;;;;;5071089;28;20075;-71
2023/10/10 05:50:29;;;;;;;56.10;20.83;;;;;;;;;;5071258;28;20115;-70
2023/10/10 05:52:55;;;;;;;58.47;21.37;;;;;;;;;;5057524;28;20056;-70
2023/10/10 05:55:21;;;;;;;58.17;21.70;;;;;;;;;;5070197;28;20497;-70
2023/10/10 05:57:47;;;;;;;55.43;21.93;;;;;;;;;;5072350;28;20048;-71
2023/10/10 06:00:14;;;;;;;54.25;20.63;;;;;;;;;;5072439;28;20044;-71
2023/10/10 06:02:45;;;;;;;60.67;21.93;;;;;;;;;;5072021;28;20047;-71
2023/10/10 06:05:12;;;;;;;56.92;21.60;;;;;;;;;;5072192;28;20298;-71
2023/10/10 06:07:42;;;;;;;;;;;;;;;;;;5071118;28;20057;-71
2023/10/10 06:10:14;;;;;;;56.38;19.67;;;;;;;;;;5058698;28;19924;-71
2023/10/10 06:12:41;;;;;;;53.22;19.42;;;;;;;;;;5072582;28;20095;-71
2023/10/10 06:15:07;;;;;;;59.00;20.95;;;;;;;;;;5083151;28;20045;-69
2023/10/10 06:17:33;;;;;;;52.90;20.40;;;;;;;;;;5083055;28;20088;-71
2023/10/10 06:20:06;;;;;;;61.37;22.13;;;;;;;;;;5071380;28;20382;-71
2023/10/10 06:22:32;;;;;;;61.13;22.08;;;;;;;;;;5071968;28;20298;-75
2023/10/10 06:24:59;;;;;;;67.55;22.90;;;;;;;;;;5072144;28;20101;-72
2023/10/10 06:27:28;;;;;;;64.75;21.90;;;;;;;;;;5060691;28;20488;-72
2023/10/10 06:30:00;;;;;;;58.10;22.85;;;;;;;;;;5057577;28;20079;-70
2023/10/10 06:32:30;;;;;;;56.53;21.58;;;;;;;;;;5074477;28;20373;-70
2023/10/10 06:37:42;;;;;;;49.92;19.08;;;;;;;;;;5074447;28;20050;-70
2023/10/10 06:40:11;;;;;;;55.60;20.43;;;;;;;;;;5074855;28;20091;-70
2023/10/10 06:42:37;;;;;;;50.78;20.05;;;;;;;;;;5074432;28;20040;-70
2023/10/10 06:45:11;;;;;;;54.85;20.48;;;;;;;;;;5057641;28;20132;-70
2023/10/10 06:47:44;;;;;;;56.78;20.58;;;;;;;;;;5074872;28;20048;-70
2023/10/10 06:50:11;;;;;;;48.67;20.15;;;;;;;;;;5075668;28;20472;-72
2023/10/10 06:52:43;;;;;;;54.55;21.42;;;;;;;;;;5073415;28;20044;-72
2023/10/10 06:55:13;;;;;;;56.78;22.45;;;;;;;;;;5074172;28;20044;-70
2023/10/10 06:57:40;;;;;;;55.17;21.67;;;;;;;;;;5075019;28;20045;-70
2023/10/10 07:00:18;;;;;;;52.85;20.75;;;;;;;;;;5066274;28;20064;-71
2023/10/10 07:02:49;;;;;;;57.78;21.50;;;;;;;;;;5055231;28;20512;-71
2023/10/10 07:05:19;;;;;;;62.50;22.92;;;;;;;;;;5053997;28;20041;-70
2023/10/10 07:07:56;;;;;;;58.95;22.50;;;;;;;;;;5054639;28;20056;-71
2023/10/10 07:10:36;;;;;;;67.18;24.42;;;;;;;;;;5054812;28;20045;-72
2023/10/10 07:13:03;;;;;;;67.32;24.70;;;;;;;;;;5053320;28;20481;-70
2023/10/10 07:15:32;;;;;;;;;;;;;;;;;;5055220;28;20071;-71
2023/10/10 07:18:22;;;;;;;81.72;25.75;;;;;;;;;;5054967;28;19944;-70
2023/10/10 07:21:06;;;;;;;93.47;29.10;;;;;;;;;;5054400;28;20057;-71
2023/10/10 07:23:41;;;;;;;78.88;28.77;;;;;;;;;;5055581;28;20500;-70
2023/10/10 07:26:18;;;;;;;88.25;29.80;;;;;;;;;;5058006;28;20044;-71
2023/10/10 07:28:52;;;;;;;93.50;29.20;;;;;;;;;;5054085;28;20132;-71
2023/10/10 07:31:21;;;;;;;80.78;28.17;;;;;;;;;;5054416;28;20489;-72
2023/10/10 07:36:50;;;;;;;;;;;;;;;;;;5060071;28;20101;-71
2023/10/10 07:39:32;;;;;;;84.00;27.52;;;;;;;;;;5074333;28;19920;-70
2023/10/10 07:41:58;;;;;;;93.82;30.83;;;;;;;;;;5074258;28;20071;-70
2023/10/10 07:44:25;;;;;;;97.00;31.70;;;;;;;;;;5074895;28;20136;-69
2023/10/10 07:49:54;;;;;;;99.57;33.45;;;;;;;;;;5032121;28;20111;-71
2023/10/10 07:52:20;;;;;;;107.20;34.28;;;;;;;;;;5043385;28;20497;-71
2023/10/10 07:54:51;;;;;;;110.40;35.00;;;;;;;;;;5072959;28;20123;-71
2023/10/10 07:57:17;;;;;;;108.95;36.75;;;;;;;;;;5074442;28;20283;-69
2023/10/10 07:59:47;;;;;;;117.28;37.33;;;;;;;;;;5072676;28;20567;-70
2023/10/10 08:02:24;;;;;;;115.57;37.95;;;;;;;;;;5074226;28;20538;-70
2023/10/10 08:04:50;;;;;;;117.15;38.10;;;;;;;;;;5075466;28;20532;-70
2023/10/10 08:07:20;;;;;;;123.72;39.72;;;;;;;;;;5073987;28;20048;-73
2023/10/10 08:09:48;;;;;;;118.18;37.53;;;;;;;;;;5055687;28;20135;-69
2023/10/10 08:12:15;;;;;;;121.63;43.33;;;;;;;;;;5055129;28;20408;-69
2023/10/10 08:14:42;;;;;;;132.82;43.30;;;;;;;;;;5054556;28;20382;-71
2023/10/10 08:17:21;;;;;;;125.60;43.15;;;;;;;;;;5053189;28;20195;-70
2023/10/10 08:19:53;;;;;;;124.70;43.20;;;;;;;;;;5054010;28;20053;-69
2023/10/10 08:22:25;;;;;;;125.97;42.95;;;;;;;;;;5054522;28;20045;-71
2023/10/10 08:24:54;;;;;;;124.78;44.40;;;;;;;;;;5053882;28;20049;-69
2023/10/10 08:27:22;;;;;;;122.70;44.33;;;;;;;;;;5062898;28;20041;-70
2023/10/10 08:29:50;;;;;;;121.95;44.95;;;;;;;;;;5072466;28;20407;-71
2023/10/10 08:32:17;;;;;;;118.55;42.42;;;;;;;;;;5073760;28;20486;-72
2023/10/10 08:34:43;;;;;;;118.18;44.45;;;;;;;;;;5076855;28;20087;-71
2023/10/10 08:37:15;;;;;;;113.23;44.17;;;;;;;;;;5074245;28;20094;-70
2023/10/10 08:39:41;;;;;;;111.28;43.15;;;;;;;;;;5073390;28;20063;-70
2023/10/10 08:42:17;;;;;;;110.68;40.40;;;;;;;;;;5064019;28;20044;-69
2023/10/10 08:44:47;;;;;;;120.57;44.72;;;;;;;;;;5053520;28;20044;-70
2023/10/10 08:47:19;;;;;;;111.60;44.78;;;;;;;;;;5052943;28;20053;-71
2023/10/10 08:49:47;;;;;;;113.00;41.85;;;;;;;;;;5053284;28;20412;-71
2023/10/10 08:52:15;;;;;;;113.15;42.78;;;;;;;;;;5050266;28;20148;-70
2023/10/10 08:54:42;;;;;;;102.88;40.72;;;;;;;;;;5052718;28;20048;-71
2023/10/10 08:57:11;;;;;;;104.78;42.08;;;;;;;;;;5052849;28;20047;-70
2023/10/10 08:59:42;;;;;;;97.68;41.28;;;;;;;;;;5060023;28;20447;-71
2023/10/10 09:02:17;;;;;;;102.15;41.65;;;;;;;;;;5052636;28;20053;-71
2023/10/10 09:04:46;;;;;;;94.80;39.55;;;;;;;;;;5052720;28;20413;-70
2023/10/10 09:07:27;;;;;;;99.18;39.67;;;;;;;;;;5052198;28;20085;-70
2023/10/10 09:10:13;;;;;;;97.22;38.75;;;;;;;;;;5053223;28;20045;-72
2023/10/10 09:12:55;;;;;;;99.78;39.40;;;;;;;;;;5053887;28;20052;-72
2023/10/10 09:15:21;;;;;;;93.28;39.25;;;;;;;;;;5053892;28;20053;-70
2023/10/10 09:17:48;;;;;;;93.65;39.03;;;;;;;;;;5071472;28;20125;-71
2023/10/10 09:20:32;;;;;;;91.70;38.97;;;;;;;;;;5072453;28;20059;-69
2023/10/10 09:23:04;;;;;;;94.45;38.55;;;;;;;;;;5054427;28;20044;-71
2023/10/10 09:25:40;;;;;;;85.78;37.63;;;;;;;;;;5071693;28;20088;-70
2023/10/10 09:28:10;;;;;;;95.03;40.08;;;;;;;;;;5071739;28;20048;-71
2023/10/10 09:30:49;;;;;;;87.45;38.78;;;;;;;;;;5054964;28;20044;-69
2023/10/10 09:33:23;;;;;;;82.70;38.47;;;;;;;;;;5104309;28;20052;-71
2023/10/10 09:35:54;;;;;;;91.22;37.80;;;;;;;;;;5072203;28;20040;-70
2023/10/10 09:38:26;;;;;;;82.07;36.70;;;;;;;;;;5071913;28;20127;-70
2023/10/10 09:41:14;;;;;;;86.00;38.42;;;;;;;;;;5072110;28;20048;-71
2023/10/10 09:44:27;;;;;;;88.70;38.30;;;;;;;;;;5073901;28;20049;-70
2023/10/10 10:06:00;;;;;;;75.28;34.35;;;;;;;;;;5052428;28;20055;-69
2023/10/10 10:08:37;;;;;;;69.88;33.83;;;;;;;;;;5051556;28;20048;-72
2023/10/10 10:11:25;;;;;;;75.15;32.70;;;;;;;;;;5052205;28;20095;-73
2023/10/10 10:14:12;;;;;;;71.03;32.67;;;;;;;;;;5052456;28;20052;-71
2023/10/10 10:16:38;;;;;;;;;;;;;;;;;;5052962;28;20390;-70
2023/10/10 10:19:14;;;;;;;72.78;32.58;;;;;;;;;;5052001;28;19927;-69
2023/10/10 10:21:55;;;;;;;69.43;30.48;;;;;;;;;;5051420;28;20084;-69
2023/10/10 10:24:31;;;;;;;70.05;31.05;;;;;;;;;;5051575;28;20100;-71
2023/10/10 10:30:35;;;;;;;68.97;31.10;;;;;;;;;;5070474;28;20098;-70
2023/10/10 10:32:55;;;;;;;70.65;33.08;;;;;;;;;;5070355;28;20468;-70
2023/10/10 10:35:21;;;;;;;68.80;30.92;;;;;;;;;;5070511;28;20484;-72
2023/10/10 10:37:59;;;;;;;71.82;30.33;;;;;;;;;;5071969;28;20052;-74
2023/10/10 10:43:16;;;;;;;73.22;31.70;;;;;;;;;;5071879;28;20511;-71
2023/10/10 10:46:05;;;;;;;68.75;30.83;;;;;;;;;;5071741;28;20408;-71
2023/10/10 10:48:35;;;;;;;66.45;30.27;;;;;;;;;;5071577;28;20055;-71
2023/10/10 10:51:23;;;;;;;64.60;28.08;;;;;;;;;;5071140;28;20045;-71
2023/10/10 10:53:58;;;;;;;65.53;28.20;;;;;;;;;;5078479;28;20071;-70
2023/10/10 10:59:19;;;;;;;71.05;30.05;;;;;;;;;;5061642;28;20084;-71
2023/10/10 11:01:52;;;;;;;61.40;28.33;;;;;;;;;;5050940;28;20061;-68
2023/10/10 11:07:07;;;;;;;68.63;29.13;;;;;;;;;;5052065;28;20056;-70
2023/10/10 11:09:34;;;;;;;66.47;30.48;;;;;;;;;;5050215;28;20057;-72
2023/10/10 11:12:05;;;;;;;70.50;31.00;;;;;;;;;;5050531;28;20040;-70
2023/10/10 11:14:31;;;;;;;66.38;29.23;;;;;;;;;;5051734;28;20304;-70
2023/10/10 11:16:58;;;;;;;56.33;27.75;;;;;;;;;;5055306;28;20080;-70
2023/10/10 11:22:00;;;;;;;56.00;25.45;;;;;;;;;;5055222;28;20551;-70
2023/10/10 11:24:34;;;;;;;56.60;24.80;;;;;;;;;;5053422;28;20049;-70
2023/10/10 11:29:29;;;;;;;54.10;23.70;;;;;;;;;;5074654;28;20500;-69
2023/10/10 11:32:08;;;;;;;54.53;26.33;;;;;;;;;;5067663;28;20051;-71
2023/10/10 11:34:44;;;;;;;;;;;;;;;;;;5055325;28;20124;-71
2023/10/10 11:37:13;;;;;;;57.13;22.70;;;;;;;;;;5053241;28;20011;-71
2023/10/10 11:39:47;;;;;;;48.22;21.83;;;;;;;;;;5036763;28;20413;-71
2023/10/10 11:42:33;;;;;;;45.92;20.17;;;;;;;;;;5054038;28;20460;-73
2023/10/10 11:44:59;;;;;;;;;;;;;;;;;;5053668;28;20077;-69
2023/10/10 11:47:26;;;;;;;49.03;21.33;;;;;;;;;;5086549;28;19963;-70
2023/10/10 11:50:00;;;;;;;43.78;20.63;;;;;;;;;;5053524;28;20049;-71
2023/10/10 11:52:50;;;;;;;45.03;20.55;;;;;;;;;;5054131;28;20059;-73
2023/10/10 11:55:20;;;;;;;43.00;20.55;;;;;;;;;;5053826;28;20049;-71
2023/10/10 11:58:05;;;;;;;44.88;19.85;;;;;;;;;;5055067;28;20044;-71
2023/10/10 12:00:42;;;;;;;43.03;19.80;;;;;;;;;;5037225;28;20053;-71
2023/10/10 12:03:34;;;;;;;48.97;20.35;;;;;;;;;;5065140;28;20283;-69
2023/10/10 12:06:00;;;;;;;45.50;20.05;;;;;;;;;;5075365;28;20057;-72
2023/10/10 12:08:27;;;;;;;54.03;20.73;;;;;;;;;;5075199;28;20049;-71
2023/10/10 12:11:12;;;;;;;46.83;20.05;;;;;;;;;;5074723;28;20041;-70
2023/10/10 12:13:48;;;;;;;45.78;19.45;;;;;;;;;;5074267;28;20056;-71
2023/10/10 12:16:17;;;;;;;44.53;21.27;;;;;;;;;;5073992;28;20098;-70
2023/10/10 12:18:44;;;;;;;46.90;21.60;;;;;;;;;;5056257;28;20060;-70
2023/10/10 12:21:21;;;;;;;47.55;21.30;;;;;;;;;;5074131;28;20531;-70
2023/10/10 12:23:57;;;;;;;45.10;21.27;;;;;;;;;;5059609;28;20056;-70
2023/10/10 12:26:23;;;;;;;43.55;20.67;;;;;;;;;;5052200;28;20135;-73
2023/10/10 12:28:52;;;;;;;;;;;;;;;;;;5065749;28;20186;-69
2023/10/10 12:31:21;;;;;;;45.25;19.83;;;;;;;;;;5071977;28;19925;-72
2023/10/10 12:33:53;;;;;;;46.00;20.05;;;;;;;;;;5073329;28;20048;-71
2023/10/10 12:36:28;;;;;;;39.38;18.38;;;;;;;;;;5072377;28;20097;-72
2023/10/10 12:38:55;;;;;;;42.53;18.70;;;;;;;;;;5073334;28;20091;-71
2023/10/10 12:41:21;;;;;;;38.40;18.70;;;;;;;;;;5037948;28;20103;-73
2023/10/10 12:43:49;;;;;;;40.45;17.77;;;;;;;;;;5053311;28;20088;-71
2023/10/10 12:46:20;;;;;;;34.92;17.10;;;;;;;;;;5052936;28;20064;-73
2023/10/10 12:48:49;;;;;;;36.13;17.50;;;;;;;;;;5052093;28;20088;-70
2023/10/10 12:51:15;;;;;;;41.63;17.65;;;;;;;;;;5053339;28;20056;-70
2023/10/10 12:53:42;;;;;;;37.17;19.08;;;;;;;;;;5052324;28;20096;-71
2023/10/10 12:56:16;;;;;;;36.58;17.42;;;;;;;;;;5052352;28;20055;-71
2023/10/10 12:58:43;;;;;;;36.80;17.63;;;;;;;;;;5064616;28;20123;-72
2023/10/10 13:01:15;;;;;;;35.97;17.20;;;;;;;;;;5072547;28;20055;-71
2023/10/10 13:03:47;;;;;;;34.08;16.27;;;;;;;;;;5073284;28;20048;-71
2023/10/10 13:06:13;;;;;;;42.83;17.88;;;;;;;;;;5072327;28;20063;-71
2023/10/10 13:08:39;;;;;;;35.47;17.63;;;;;;;;;;5073066;28;20094;-71
2023/10/10 13:11:14;;;;;;;36.08;16.85;;;;;;;;;;5072543;28;20052;-70
2023/10/10 13:13:45;;;;;;;36.03;16.92;;;;;;;;;;5076155;28;20044;-72
2023/10/10 13:18:59;;;;;;;35.20;18.17;;;;;;;;;;5038100;28;20057;-70
2023/10/10 13:21:26;;;;;;;35.65;17.55;;;;;;;;;;5052644;28;20048;-72
2023/10/10 13:23:52;;;;;;;;;;;;;;;;;;5052533;28;20098;-70
2023/10/10 13:26:21;;;;;;;33.65;16.92;;;;;;;;;;5051433;28;19928;-73
2023/10/10 13:28:48;;;;;;;35.72;17.45;;;;;;;;;;5050751;28;20084;-73
2023/10/10 13:31:15;;;;;;;38.67;17.70;;;;;;;;;;5060591;28;20041;-73
2023/10/10 13:33:40;;;;;;;;;;;;;;;;;;5055018;28;20396;-72
2023/10/10 13:36:16;;;;;;;32.63;15.43;;;;;;;;;;5070981;28;19921;-71
2023/10/10 13:38:50;;;;;;;35.85;17.25;;;;;;;;;;5052443;28;20051;-71
2023/10/10 13:41:19;;;;;;;36.60;17.13;;;;;;;;;;5052823;28;20371;-71
2023/10/10 13:43:47;;;;;;;38.03;17.77;;;;;;;;;;5052249;28;20056;-71
2023/10/10 13:46:13;;;;;;;38.17;18.63;;;;;;;;;;5051295;28;20045;-71
2023/10/10 13:48:39;;;;;;;;;;;;;;;;;;5063196;28;20049;-71
2023/10/10 13:51:07;;;;;;;36.10;17.95;;;;;;;;;;5059972;28;19925;-71
2023/10/10 13:53:34;;;;;;;41.17;19.60;;;;;;;;;;5052134;28;20049;-72
2023/10/10 13:56:03;;;;;;;37.10;18.30;;;;;;;;;;5052098;28;20045;-71
2023/10/10 13:58:29;;;;;;;36.22;18.13;;;;;;;;;;5052581;28;20048;-71
2023/10/10 14:01:03;;;;;;;34.33;19.42;;;;;;;;;;5051850;28;20099;-72
2023/10/10 14:03:31;;;;;;;35.60;17.42;;;;;;;;;;5052356;28;20524;-71
2023/10/10 14:06:00;;;;;;;34.97;17.88;;;;;;;;;;5066515;28;20041;-70
2023/10/10 14:08:27;;;;;;;36.22;17.63;;;;;;;;;;5071575;28;20052;-71
2023/10/10 14:10:54;;;;;;;31.67;16.80;;;;;;;;;;5070912;28;20489;-71
2023/10/10 14:13:20;;;;;;;33.80;16.90;;;;;;;;;;5072697;28;20627;-70
2023/10/10 14:15:54;;;;;;;34.60;16.63;;;;;;;;;;5070771;28;20044;-70
2023/10/10 14:18:24;;;;;;;33.92;16.88;;;;;;;;;;5072906;28;20090;-71
2023/10/10 14:20:51;;;;;;;31.63;16.15;;;;;;;;;;5075044;28;20053;-72
2023/10/10 14:23:25;;;;;;;30.35;16.52;;;;;;;;;;5055913;28;20151;-70
2023/10/10 14:25:57;;;;;;;40.47;16.27;;;;;;;;;;5054055;28;20060;-71
2023/10/10 14:28:29;;;;;;;31.20;16.30;;;;;;;;;;5064741;28;20055;-71
2023/10/10 14:30:58;;;;;;;33.35;16.65;;;;;;;;;;5071826;28;20044;-73
2023/10/10 14:33:25;;;;;;;34.28;16.10;;;;;;;;;;5073616;28;20048;-73
2023/10/10 14:35:52;;;;;;;29.75;14.95;;;;;;;;;;5072965;28;20098;-73
2023/10/10 14:38:18;;;;;;;42.08;16.45;;;;;;;;;;5053496;28;20052;-71
2023/10/10 14:40:45;;;;;;;36.45;16.65;;;;;;;;;;5050261;28;20049;-72
2023/10/10 14:43:11;;;;;;;;;;;;;;;;;;5050997;28;20051;-71
2023/10/10 14:45:44;;;;;;;37.30;16.45;;;;;;;;;;5052064;28;19928;-70
2023/10/10 14:48:18;;;;;;;33.08;16.38;;;;;;;;;;5052045;28;20087;-71
2023/10/10 14:50:54;;;;;;;35.70;16.25;;;;;;;;;;5051845;28;20045;-71
2023/10/10 14:53:22;;;;;;;37.05;16.92;;;;;;;;;;5054915;28;20057;-70
2023/10/10 14:55:51;;;;;;;39.00;17.55;;;;;;;;;;5068176;28;20408;-72
2023/10/10 14:58:21;;;;;;;51.72;18.10;;;;;;;;;;5075113;28;20055;-76
2023/10/10 15:00:49;;;;;;;40.22;17.83;;;;;;;;;;5087749;28;20049;-72
2023/10/10 15:03:16;;;;;;;38.45;17.73;;;;;;;;;;5054080;28;20041;-72
2023/10/10 15:05:47;;;;;;;38.20;18.17;;;;;;;;;;5059283;28;20135;-75
2023/10/10 15:08:14;;;;;;;36.67;17.65;;;;;;;;;;5054117;28;20056;-71
2023/10/10 15:10:43;;;;;;;;;;;;;;;;;;5055258;28;20037;-71
2023/10/10 15:13:11;;;;;;;34.92;17.27;;;;;;;;;;5045944;28;19920;-71
2023/10/10 15:15:37;;;;;;;36.10;17.38;;;;;;;;;;5074831;28;20055;-71
2023/10/10 15:18:04;;;;;;;36.85;18.42;;;;;;;;;;5066066;28;20245;-71
2023/10/10 15:20:30;;;;;;;37.60;18.40;;;;;;;;;;5054650;28;20052;-71
2023/10/10 15:22:57;;;;;;;38.45;17.85;;;;;;;;;;5053744;28;20053;-71
2023/10/10 15:25:23;;;;;;;36.60;18.20;;;;;;;;;;5055632;28;20045;-71
2023/10/10 15:27:49;;;;;;;40.03;17.65;;;;;;;;;;5055345;28;20094;-72
2023/10/10 15:30:15;;;;;;;38.50;17.73;;;;;;;;;;5071874;28;20079;-71
2023/10/10 15:32:51;;;;;;;38.42;17.90;;;;;;;;;;5118372;28;20054;-70
2023/10/10 15:35:18;;;;;;;36.25;17.35;;;;;;;;;;5076598;28;20135;-71
2023/10/10 15:37:44;;;;;;;43.03;17.95;;;;;;;;;;5073853;28;20097;-71
2023/10/10 15:40:13;;;;;;;37.95;17.95;;;;;;;;;;5073150;28;20041;-71
2023/10/10 15:42:47;;;;;;;39.55;17.73;;;;;;;;;;5074809;28;20084;-70
2023/10/10 15:45:20;;;;;;;36.17;17.60;;;;;;;;;;5074532;28;20373;-70
2023/10/10 15:47:49;;;;;;;42.67;17.25;;;;;;;;;;5043232;28;20061;-70
2023/10/10 15:50:16;;;;;;;36.63;17.50;;;;;;;;;;5054302;28;20171;-71
2023/10/10 15:52:48;;;;;;;34.90;17.20;;;;;;;;;;5054364;28;20059;-71
2023/10/10 15:55:23;;;;;;;38.67;18.20;;;;;;;;;;5053738;28;20045;-72
2023/10/10 15:57:52;;;;;;;38.05;17.25;;;;;;;;;;5054493;28;20045;-75
2023/10/10 16:00:21;;;;;;;47.53;18.67;;;;;;;;;;5052824;28;20053;-71
2023/10/10 16:02:52;;;;;;;38.92;17.02;;;;;;;;;;5053403;28;20064;-71
2023/10/10 16:05:18;;;;;;;45.33;17.75;;;;;;;;;;5054378;28;20416;-72
2023/10/10 16:07:47;;;;;;;38.42;16.38;;;;;;;;;;5053486;28;20136;-71
2023/10/10 16:10:15;;;;;;;43.25;17.35;;;;;;;;;;5054993;28;20099;-71
2023/10/10 16:12:44;;;;;;;37.38;16.77;;;;;;;;;;5053796;28;20045;-72
2023/10/10 16:15:18;;;;;;;39.85;17.40;;;;;;;;;;5053860;28;20099;-71
2023/10/10 16:17:52;;;;;;;39.92;18.38;;;;;;;;;;5053746;28;20120;-71
2023/10/10 16:20:22;;;;;;;37.47;17.67;;;;;;;;;;5052854;28;20041;-71
2023/10/10 16:22:48;;;;;;;40.38;17.73;;;;;;;;;;5058845;28;20423;-70
2023/10/10 16:25:16;;;;;;;41.22;18.05;;;;;;;;;;5038219;28;20063;-71
2023/10/10 16:27:42;;;;;;;73.60;24.42;;;;;;;;;;5053829;28;20052;-72
2023/10/10 16:30:08;;;;;;;49.85;21.90;;;;;;;;;;5053343;28;20099;-71
2023/10/10 16:32:37;;;;;;;;;;;;;;;;;;5052923;28;20128;-70
2023/10/10 16:35:06;;;;;;;42.92;18.63;;;;;;;;;;5052124;28;19972;-72
2023/10/10 16:37:36;;;;;;;44.92;19.45;;;;;;;;;;5038316;28;20087;-71
2023/10/10 16:40:06;;;;;;;49.53;18.77;;;;;;;;;;5073105;28;20056;-72
2023/10/10 16:42:33;;;;;;;52.72;19.27;;;;;;;;;;5073117;28;20041;-71
2023/10/10 16:44:59;;;;;;;39.97;18.13;;;;;;;;;;5071629;28;20053;-71
2023/10/10 16:47:26;;;;;;;44.47;19.00;;;;;;;;;;5071613;28;20056;-71
2023/10/10 16:49:52;;;;;;;48.35;19.00;;;;;;;;;;5073129;28;20388;-71
2023/10/10 16:52:25;;;;;;;42.20;18.92;;;;;;;;;;5103942;28;20059;-70
2023/10/10 16:54:53;;;;;;;41.60;19.13;;;;;;;;;;5070884;28;20136;-71
2023/10/10 16:57:22;;;;;;;46.40;19.73;;;;;;;;;;5070972;28;20044;-71
2023/10/10 16:59:50;;;;;;;46.95;19.15;;;;;;;;;;5072702;28;20091;-72
2023/10/10 17:02:16;;;;;;;47.75;19.63;;;;;;;;;;5072522;28;20049;-70
2023/10/10 17:04:43;;;;;;;46.47;19.08;;;;;;;;;;5050722;28;20051;-71
2023/10/10 17:07:11;;;;;;;47.88;18.70;;;;;;;;;;5070220;28;20523;-72
2023/10/10 17:09:38;;;;;;;42.67;18.70;;;;;;;;;;5072613;28;20044;-71
2023/10/10 17:12:05;;;;;;;43.40;19.42;;;;;;;;;;5064369;28;20036;-73
2023/10/10 17:14:34;;;;;;;41.95;19.35;;;;;;;;;;5052392;28;20049;-72
2023/10/10 17:17:00;;;;;;;45.83;20.25;;;;;;;;;;5052306;28;20051;-72
2023/10/10 17:19:27;;;;;;;48.77;19.17;;;;;;;;;;5050721;28;20041;-72
2023/10/10 17:21:54;;;;;;;41.65;20.00;;;;;;;;;;5051279;28;20284;-71
2023/10/10 17:24:25;;;;;;;41.97;19.30;;;;;;;;;;5052355;28;20394;-73
2023/10/10 17:26:53;;;;;;;45.30;20.23;;;;;;;;;;5051005;28;20090;-71
2023/10/10 17:29:19;;;;;;;45.63;19.58;;;;;;;;;;5060080;28;20341;-72
2023/10/10 17:31:45;;;;;;;50.20;22.03;;;;;;;;;;5052022;28;20128;-71
2023/10/10 17:34:15;;;;;;;44.23;20.60;;;;;;;;;;5050038;28;20279;-71
2023/10/10 17:36:41;;;;;;;53.92;22.77;;;;;;;;;;5052528;28;20558;-70
2023/10/10 17:39:15;;;;;;;;;;;;;;;;;;5052795;28;20564;-70
2023/10/10 17:41:42;;;;;;;52.67;23.70;;;;;;;;;;5085228;28;19916;-71
2023/10/10 17:44:10;;;;;;;;;;;;;;;;;;5051861;28;20066;-71
2023/10/10 17:46:36;;;;;;;53.83;24.98;;;;;;;;;;5054109;28;19921;-72
2023/10/10 17:49:04;;;;;;;54.30;24.88;;;;;;;;;;5051479;28;20047;-71
2023/10/10 17:51:33;;;;;;;56.28;24.17;;;;;;;;;;5053785;28;20088;-71
2023/10/10 17:53:59;;;;;;;58.60;24.98;;;;;;;;;;5051137;28;20049;-70
2023/10/10 17:56:26;;;;;;;57.90;23.35;;;;;;;;;;5036624;28;20542;-71